Time;durP1;ratioP1;P1;durP2;ratioP2;P2;SDS_P1;SDS_P2;PMS_P1;PMS_P2;Temp;Humidity;BMP_temperature;BMP_pressure;BME280_temperature;BME280_humidity;BME280_pressure;Samples;Min_cycle;Max_cycle;Signal;HPM_P1;HPM_P2
2023/09/13 00:00:54;;;;;;;0.50;0.30;;;19.00;99.90;;;;;;5017362;28;20481;-78
2023/09/13 00:03:20;;;;;;;5.17;4.97;;;19.00;99.90;;;;;;5017248;28;20952;-80
2023/09/13 00:05:47;;;;;;;0.87;0.87;;;19.00;99.90;;;;;;5017641;28;20446;-79
2023/09/13 00:08:14;;;;;;;0.50;0.40;;;19.00;99.90;;;;;;5016901;28;20453;-80
2023/09/13 00:10:44;;;;;;;0.50;0.50;;;19.00;99.90;;;;;;5017344;28;20435;-79
2023/09/13 00:13:11;;;;;;;0.50;0.40;;;19.10;99.90;;;;;;5017113;28;20852;-79
2023/09/13 00:15:42;;;;;;;0.50;0.30;;;19.10;99.90;;;;;;5016889;28;20525;-80
2023/09/13 00:18:08;;;;;;;0.50;0.37;;;19.10;99.90;;;;;;5016825;28;20489;-79
2023/09/13 00:20:37;;;;;;;0.93;0.87;;;19.10;99.90;;;;;;5008862;28;20478;-79
2023/09/13 00:23:04;;;;;;;0.50;0.30;;;19.20;99.90;;;;;;5016544;28;20890;-79
2023/09/13 00:25:31;;;;;;;1.03;1.03;;;19.20;99.90;;;;;;5017198;28;20451;-79
2023/09/13 00:27:59;;;;;;;0.80;0.80;;;19.20;99.90;;;;;;5017396;28;20445;-80
2023/09/13 00:30:26;;;;;;;0.50;0.40;;;19.20;99.90;;;;;;5016881;28;20430;-80
2023/09/13 00:32:53;;;;;;;3.00;1.80;;;19.20;99.90;;;;;;5016876;28;20470;-80
2023/09/13 00:35:19;;;;;;;0.50;0.30;;;19.20;99.90;;;;;;5016327;28;20449;-80
2023/09/13 00:37:46;;;;;;;0.50;0.30;;;19.20;99.90;;;;;;5016849;28;20446;-78
2023/09/13 00:40:13;;;;;;;0.50;0.30;;;19.30;99.90;;;;;;5016758;28;20448;-79
2023/09/13 00:42:40;;;;;;;0.50;0.40;;;19.30;99.90;;;;;;5016869;28;20970;-79
2023/09/13 00:45:09;;;;;;;1.20;1.07;;;19.20;99.90;;;;;;5016291;28;20942;-79
2023/09/13 00:47:36;;;;;;;0.50;0.30;;;19.30;99.90;;;;;;5016458;28;20442;-79
2023/09/13 00:50:04;;;;;;;1.63;0.90;;;19.30;99.90;;;;;;5016368;28;20457;-79
2023/09/13 00:52:31;;;;;;;1.13;1.03;;;19.30;99.90;;;;;;5016411;28;20985;-79
2023/09/13 00:54:58;;;;;;;0.50;0.30;;;19.30;99.90;;;;;;5016333;28;20474;-79
2023/09/13 00:57:25;;;;;;;0.50;0.30;;;19.30;99.90;;;;;;5016666;28;20452;-79
2023/09/13 00:59:52;;;;;;;0.50;0.30;;;19.30;99.90;;;;;;5015872;28;20530;-78
2023/09/13 01:02:20;;;;;;;0.50;0.30;;;19.30;99.90;;;;;;5015713;28;20831;-78
2023/09/13 01:04:47;;;;;;;0.50;0.30;;;19.40;99.90;;;;;;5016586;28;20432;-80
2023/09/13 01:07:15;;;;;;;0.50;0.40;;;19.40;99.90;;;;;;5017073;28;20538;-80
2023/09/13 01:09:42;;;;;;;0.50;0.30;;;19.40;99.90;;;;;;5015810;28;20565;-79
2023/09/13 01:12:09;;;;;;;0.50;0.30;;;19.50;99.90;;;;;;5016524;28;20469;-80
2023/09/13 01:14:36;;;;;;;0.50;0.30;;;19.40;99.90;;;;;;5015594;28;20443;-79
2023/09/13 01:17:11;;;;;;;0.50;0.50;;;19.40;99.90;;;;;;5016909;28;20436;-80
2023/09/13 01:19:56;;;;;;;0.50;0.30;;;19.40;99.90;;;;;;5016271;28;20453;-80
2023/09/13 01:22:50;;;;;;;0.50;0.30;;;19.50;99.90;;;;;;5016326;28;20476;-80
2023/09/13 01:25:48;;;;;;;0.50;0.40;;;19.50;99.90;;;;;;5016079;28;20451;-79
2023/09/13 01:28:34;;;;;;;0.50;0.40;;;19.50;99.90;;;;;;5017074;28;20446;-80
2023/09/13 01:31:03;;;;;;;0.50;0.30;;;19.50;99.90;;;;;;5010480;28;20477;-78
2023/09/13 01:33:30;;;;;;;3.13;2.83;;;19.60;99.90;;;;;;5015111;28;20474;-80
2023/09/13 01:35:57;;;;;;;0.50;0.30;;;19.60;99.90;;;;;;5014759;28;20445;-80
2023/09/13 01:38:24;;;;;;;0.63;0.60;;;19.60;99.90;;;;;;5014248;28;20521;-79
2023/09/13 01:40:55;;;;;;;0.50;0.30;;;19.50;99.90;;;;;;5015035;28;20478;-79
2023/09/13 01:43:24;;;;;;;0.50;0.40;;;19.50;99.90;;;;;;5014613;28;20449;-80
2023/09/13 01:45:51;;;;;;;0.50;0.30;;;19.50;99.90;;;;;;5014585;28;20439;-80
2023/09/13 01:48:20;;;;;;;0.50;0.30;;;19.40;99.90;;;;;;5014829;28;20444;-79
2023/09/13 01:50:48;;;;;;;0.50;0.30;;;19.40;99.90;;;;;;5007746;28;20529;-77
2023/09/13 01:53:15;;;;;;;0.50;0.40;;;19.40;99.90;;;;;;5014677;28;20476;-79
2023/09/13 01:55:42;;;;;;;0.50;0.30;;;19.40;99.90;;;;;;5014717;28;20474;-79
2023/09/13 01:58:08;;;;;;;0.50;0.40;;;19.40;99.90;;;;;;5015042;28;20445;-79
2023/09/13 02:00:36;;;;;;;3.53;2.53;;;19.40;99.90;;;;;;5014352;28;20447;-78
2023/09/13 02:03:03;;;;;;;1.70;1.60;;;19.40;99.90;;;;;;5014658;28;20449;-77
2023/09/13 02:05:30;;;;;;;3.90;1.93;;;19.40;99.90;;;;;;5013900;28;20446;-78
2023/09/13 02:07:57;;;;;;;0.90;0.90;;;19.40;99.90;;;;;;5014800;28;20446;-79
2023/09/13 02:10:24;;;;;;;0.50;0.30;;;19.30;99.90;;;;;;5014010;28;20431;-79
2023/09/13 02:12:50;;;;;;;0.50;0.30;;;19.30;99.90;;;;;;5014011;28;20957;-80
2023/09/13 02:15:17;;;;;;;0.70;0.40;;;19.30;99.90;;;;;;5013822;28;20447;-79
2023/09/13 02:17:45;;;;;;;3.13;2.13;;;19.30;99.90;;;;;;5014116;28;20446;-79
2023/09/13 02:20:12;;;;;;;2.10;1.90;;;19.20;99.90;;;;;;5014392;28;20439;-78
2023/09/13 02:22:39;;;;;;;0.50;0.30;;;19.10;99.90;;;;;;5017852;28;20487;-77
2023/09/13 02:25:07;;;;;;;0.70;0.70;;;19.10;99.90;;;;;;5018328;28;20449;-78
2023/09/13 02:27:34;;;;;;;0.50;0.40;;;19.10;99.90;;;;;;5018136;28;20489;-79
2023/09/13 02:30:03;;;;;;;0.50;0.30;;;19.00;99.90;;;;;;5018029;28;20922;-80
2023/09/13 02:32:30;;;;;;;1.80;1.70;;;19.10;99.90;;;;;;5017880;28;20470;-79
2023/09/13 02:34:59;;;;;;;0.50;0.30;;;19.10;99.90;;;;;;5017793;28;20433;-79
2023/09/13 02:37:27;;;;;;;3.70;2.50;;;19.10;99.90;;;;;;5017686;28;20442;-78
2023/09/13 02:39:54;;;;;;;1.30;1.30;;;19.10;99.90;;;;;;5018299;28;20493;-78
2023/09/13 02:42:21;;;;;;;1.03;1.03;;;19.00;99.90;;;;;;5017861;28;20482;-79
2023/09/13 02:44:48;;;;;;;0.50;0.30;;;19.00;99.90;;;;;;5017321;28;20454;-78
2023/09/13 02:47:14;;;;;;;1.10;1.00;;;19.00;99.90;;;;;;5017313;28;20441;-79
2023/09/13 02:49:41;;;;;;;1.23;1.20;;;19.00;99.90;;;;;;5017436;28;20535;-79
2023/09/13 02:52:09;;;;;;;0.67;0.60;;;19.00;99.90;;;;;;5017531;28;20968;-79
2023/09/13 02:54:36;;;;;;;1.33;1.03;;;19.00;99.90;;;;;;5017412;28;20449;-79
2023/09/13 02:57:03;;;;;;;0.60;0.60;;;19.00;99.90;;;;;;5016968;28;20451;-79
2023/09/13 02:59:30;;;;;;;0.93;0.90;;;18.90;99.90;;;;;;5017277;28;20982;-79
2023/09/13 03:01:57;;;;;;;0.50;0.47;;;19.00;99.90;;;;;;5017187;28;20939;-79
2023/09/13 03:04:23;;;;;;;0.50;0.30;;;19.00;99.90;;;;;;5016633;28;20439;-79
2023/09/13 03:06:50;;;;;;;0.50;0.37;;;19.00;99.90;;;;;;5009795;28;20545;-79
2023/09/13 03:09:18;;;;;;;0.50;0.30;;;19.00;99.90;;;;;;5017146;28;20455;-79
2023/09/13 03:11:45;;;;;;;0.50;0.30;;;19.00;99.90;;;;;;5016832;28;20457;-80
2023/09/13 03:14:12;;;;;;;0.50;0.30;;;19.10;99.90;;;;;;5017507;28;20448;-77
2023/09/13 03:16:38;;;;;;;0.50;0.30;;;19.10;99.90;;;;;;5048874;22;20497;-84
2023/09/13 03:19:06;;;;;;;0.50;0.30;;;19.10;99.90;;;;;;5060179;28;20447;-84
2023/09/13 03:21:33;;;;;;;0.50;0.30;;;19.10;99.90;;;;;;5068386;28;20566;-85
2023/09/13 03:23:59;;;;;;;0.50;0.30;;;19.00;99.90;;;;;;5066172;28;20794;-85
2023/09/13 03:26:28;;;;;;;0.50;0.40;;;19.10;99.90;;;;;;5074494;28;20477;-86
2023/09/13 03:28:56;;;;;;;0.40;0.30;;;19.10;99.90;;;;;;5062705;28;20622;-84
2023/09/13 03:31:24;;;;;;;0.50;0.30;;;19.10;99.90;;;;;;5077689;28;20437;-83
2023/09/13 03:33:52;;;;;;;0.60;0.40;;;19.00;99.90;;;;;;5077187;28;20962;-83
2023/09/13 03:36:19;;;;;;;0.50;0.30;;;19.00;99.90;;;;;;5078369;28;20462;-85
2023/09/13 03:38:47;;;;;;;0.50;0.40;;;19.00;99.90;;;;;;5080417;28;20441;-85
2023/09/13 03:41:16;;;;;;;0.50;0.30;;;19.00;99.90;;;;;;5079762;28;20505;-85
2023/09/13 03:43:44;;;;;;;0.50;0.30;;;19.00;99.90;;;;;;5079407;28;20458;-83
2023/09/13 03:46:11;;;;;;;0.43;0.30;;;19.00;99.90;;;;;;5079539;28;20453;-83
2023/09/13 03:48:39;;;;;;;0.50;0.30;;;18.90;99.90;;;;;;5077629;28;20542;-85
2023/09/13 03:51:07;;;;;;;0.50;0.30;;;18.90;99.90;;;;;;5079531;28;20474;-83
2023/09/13 03:53:34;;;;;;;0.50;0.33;;;18.80;99.90;;;;;;5058790;28;20545;-83
2023/09/13 03:56:02;;;;;;;0.47;0.30;;;18.80;99.90;;;;;;5074143;28;20831;-84
2023/09/13 03:58:29;;;;;;;0.50;0.30;;;18.90;99.90;;;;;;5077389;28;20443;-85
2023/09/13 04:00:58;;;;;;;0.50;0.30;;;18.90;99.90;;;;;;5060492;28;20929;-84
2023/09/13 04:03:26;;;;;;;0.50;0.30;;;18.90;99.90;;;;;;5076608;28;20842;-83
2023/09/13 04:05:53;;;;;;;0.50;0.30;;;18.90;99.90;;;;;;5076316;28;20465;-81
2023/09/13 04:08:20;;;;;;;0.50;0.30;;;18.80;99.90;;;;;;5076877;28;20453;-84
2023/09/13 04:10:47;;;;;;;0.50;0.30;;;18.80;99.90;;;;;;5075772;28;20454;-84
2023/09/13 04:13:14;;;;;;;1.17;1.17;;;18.90;99.90;;;;;;5077088;28;20530;-84
2023/09/13 04:15:44;;;;;;;0.50;0.30;;;18.90;99.90;;;;;;5077243;28;20468;-83
2023/09/13 04:18:12;;;;;;;0.50;0.30;;;18.90;99.90;;;;;;5077905;28;20451;-84
2023/09/13 04:20:39;;;;;;;0.50;0.30;;;18.90;99.90;;;;;;5071086;28;20453;-84
2023/09/13 04:23:06;;;;;;;0.43;0.30;;;18.90;99.90;;;;;;5076928;28;20503;-84
2023/09/13 04:25:33;;;;;;;0.50;0.40;;;18.90;99.90;;;;;;5077053;28;21012;-84
2023/09/13 04:28:00;;;;;;;0.50;0.30;;;18.90;99.90;;;;;;5076797;28;20446;-85
2023/09/13 04:30:26;;;;;;;0.50;0.30;;;18.90;99.90;;;;;;5076809;28;20471;-84
2023/09/13 04:32:54;;;;;;;0.50;0.40;;;18.90;99.90;;;;;;5076494;28;20443;-85
2023/09/13 04:35:22;;;;;;;0.50;0.40;;;18.90;99.90;;;;;;5076554;28;20829;-85
2023/09/13 04:37:49;;;;;;;2.00;1.90;;;18.90;99.90;;;;;;5075946;28;20436;-85
2023/09/13 04:40:15;;;;;;;0.50;0.30;;;18.90;99.90;;;;;;5076057;28;20456;-85
2023/09/13 04:42:51;;;;;;;0.50;0.40;;;18.90;99.90;;;;;;5076129;28;20479;-84
2023/09/13 04:45:19;;;;;;;1.53;1.43;;;18.80;99.90;;;;;;5074847;28;20518;-83
2023/09/13 04:47:46;;;;;;;0.50;0.30;;;18.80;99.90;;;;;;5074590;28;20479;-85
2023/09/13 04:50:13;;;;;;;1.00;0.90;;;18.80;99.90;;;;;;5076383;28;20444;-86
2023/09/13 04:52:41;;;;;;;0.50;0.40;;;18.80;99.90;;;;;;5075691;28;20450;-84
2023/09/13 04:55:08;;;;;;;0.50;0.30;;;18.70;99.90;;;;;;5075879;28;20771;-85
2023/09/13 04:57:36;;;;;;;3.70;1.10;;;18.70;99.90;;;;;;5075911;28;20446;-85
2023/09/13 05:00:06;;;;;;;0.60;0.60;;;18.70;99.90;;;;;;5076383;28;20532;-83
2023/09/13 05:02:32;;;;;;;5.10;1.23;;;18.70;99.90;;;;;;5076277;28;20475;-83
2023/09/13 05:04:59;;;;;;;0.50;0.37;;;18.60;99.90;;;;;;5073768;28;20436;-81
2023/09/13 05:07:26;;;;;;;2.93;2.73;;;18.70;99.90;;;;;;5075533;28;20924;-83
2023/09/13 05:09:54;;;;;;;1.03;1.03;;;18.60;99.90;;;;;;5074776;28;20454;-82
2023/09/13 05:12:21;;;;;;;3.90;3.53;;;18.60;99.90;;;;;;5076250;28;20561;-82
2023/09/13 05:14:48;;;;;;;2.43;2.23;;;18.60;99.90;;;;;;5075722;28;20471;-84
2023/09/13 05:17:15;;;;;;;5.83;3.70;;;18.50;99.90;;;;;;5076570;28;20471;-83
2023/09/13 05:19:42;;;;;;;0.50;0.40;;;18.50;99.90;;;;;;5075669;28;20449;-82
2023/09/13 05:22:08;;;;;;;0.50;0.40;;;18.40;99.90;;;;;;5075747;28;20475;-82
2023/09/13 05:24:35;;;;;;;1.00;1.00;;;18.30;99.90;;;;;;5075780;28;20451;-84
2023/09/13 05:27:03;;;;;;;1.07;1.07;;;18.30;99.90;;;;;;5076275;28;20455;-80
2023/09/13 05:29:30;;;;;;;6.00;1.53;;;18.20;99.90;;;;;;5077354;28;20443;-84
2023/09/13 05:31:57;;;;;;;13.23;4.00;;;18.20;99.90;;;;;;5076569;28;20456;-84
2023/09/13 05:34:24;;;;;;;0.50;0.30;;;18.20;99.90;;;;;;5076294;28;20450;-82
2023/09/13 05:36:50;;;;;;;0.53;0.53;;;18.20;99.90;;;;;;5078065;28;20977;-84
2023/09/13 05:39:17;;;;;;;3.73;2.77;;;18.20;99.90;;;;;;5077036;28;20442;-83
2023/09/13 05:41:45;;;;;;;1.43;1.23;;;18.20;99.90;;;;;;5077574;28;20443;-84
2023/09/13 05:44:19;;;;;;;2.20;2.00;;;18.20;99.90;;;;;;5078812;28;20451;-81
2023/09/13 05:46:45;;;;;;;2.20;2.10;;;18.10;99.90;;;;;;5076949;28;20468;-85
2023/09/13 05:49:12;;;;;;;5.40;4.10;;;18.10;99.90;;;;;;5079149;28;20457;-82
2023/09/13 05:51:39;;;;;;;0.50;0.40;;;18.20;99.90;;;;;;5080362;28;20537;-85
2023/09/13 05:54:06;;;;;;;1.37;1.13;;;18.10;99.90;;;;;;5079675;28;20470;-83
2023/09/13 05:56:33;;;;;;;0.60;0.60;;;18.20;99.90;;;;;;5084933;28;20478;-83
2023/09/13 05:58:59;;;;;;;1.67;1.57;;;18.10;99.90;;;;;;5087902;28;20518;-83
2023/09/13 06:01:27;;;;;;;0.70;0.70;;;18.20;99.90;;;;;;5090248;28;20447;-82
2023/09/13 06:03:54;;;;;;;0.70;0.70;;;18.20;99.90;;;;;;5085590;28;20485;-80
2023/09/13 06:06:21;;;;;;;1.80;1.70;;;18.20;99.90;;;;;;5085965;28;20493;-82
2023/09/13 06:08:48;;;;;;;4.00;0.97;;;18.30;99.90;;;;;;5087426;28;20453;-83
2023/09/13 06:11:17;;;;;;;0.50;0.40;;;18.30;99.90;;;;;;5087167;28;20530;-82
2023/09/13 06:13:44;;;;;;;2.20;2.10;;;18.30;99.90;;;;;;5090259;28;20510;-82
2023/09/13 06:16:11;;;;;;;0.50;0.30;;;18.30;99.90;;;;;;5090209;28;20474;-83
2023/09/13 06:18:39;;;;;;;0.63;0.63;;;18.30;99.90;;;;;;5088154;28;20449;-83
2023/09/13 06:21:06;;;;;;;0.50;0.40;;;18.30;99.90;;;;;;5079953;28;20443;-83
2023/09/13 06:23:37;;;;;;;3.43;3.17;;;18.40;99.90;;;;;;5079476;28;20550;-83
2023/09/13 06:26:04;;;;;;;16.63;4.30;;;18.40;99.90;;;;;;5079293;28;20454;-83
2023/09/13 06:28:32;;;;;;;0.63;0.57;;;18.40;99.90;;;;;;5080698;28;20454;-83
2023/09/13 06:31:00;;;;;;;0.70;0.67;;;18.40;99.90;;;;;;5079145;28;20444;-83
2023/09/13 06:33:27;;;;;;;2.60;0.73;;;18.40;99.90;;;;;;5079684;28;20938;-84
2023/09/13 06:35:57;;;;;;;0.50;0.40;;;18.40;99.90;;;;;;5079203;28;20467;-85
2023/09/13 06:38:24;;;;;;;0.50;0.37;;;18.40;99.90;;;;;;5083120;28;20512;-83
2023/09/13 06:40:51;;;;;;;12.73;4.40;;;18.50;99.90;;;;;;5085397;28;20507;-85
2023/09/13 06:43:19;;;;;;;2.10;2.00;;;18.50;99.90;;;;;;5087259;28;20472;-82
2023/09/13 06:45:46;;;;;;;0.50;0.50;;;18.60;99.90;;;;;;5092739;28;20455;-81
2023/09/13 06:48:13;;;;;;;0.83;0.83;;;18.60;99.90;;;;;;5091501;28;20513;-82
2023/09/13 06:50:40;;;;;;;1.53;1.43;;;18.60;99.90;;;;;;5092489;28;20447;-81
2023/09/13 06:53:08;;;;;;;0.83;0.73;;;18.70;99.90;;;;;;5092393;28;20454;-82
2023/09/13 06:55:35;;;;;;;0.50;0.30;;;18.70;99.90;;;;;;5092356;28;20463;-84
2023/09/13 06:58:05;;;;;;;1.37;1.27;;;18.80;99.90;;;;;;5091430;28;20443;-83
2023/09/13 07:00:32;;;;;;;0.50;0.30;;;18.80;99.90;;;;;;5092542;28;20478;-82
2023/09/13 07:02:59;;;;;;;0.50;0.40;;;18.80;99.90;;;;;;5092424;28;20480;-82
2023/09/13 07:05:26;;;;;;;1.17;1.03;;;18.80;99.90;;;;;;5091863;28;20459;-82
2023/09/13 07:07:53;;;;;;;1.93;1.37;;;18.70;99.90;;;;;;5089732;28;20450;-80
2023/09/13 07:10:21;;;;;;;0.50;0.40;;;18.70;99.90;;;;;;5092447;28;20526;-83
2023/09/13 07:12:48;;;;;;;0.50;0.50;;;18.70;99.90;;;;;;5091260;28;20435;-82
2023/09/13 07:15:16;;;;;;;8.03;1.60;;;18.80;99.90;;;;;;5084478;28;20443;-81
2023/09/13 07:17:43;;;;;;;2.50;2.20;;;18.80;99.90;;;;;;5077956;28;20437;-82
2023/09/13 07:20:10;;;;;;;0.50;0.30;;;18.80;99.90;;;;;;5077827;28;20805;-80
2023/09/13 07:22:37;;;;;;;0.50;0.30;;;18.90;99.90;;;;;;5078384;28;20474;-81
2023/09/13 07:25:05;;;;;;;1.20;1.10;;;19.00;99.90;;;;;;5077678;28;20441;-82
2023/09/13 07:27:33;;;;;;;5.27;4.83;;;19.10;99.90;;;;;;5078277;28;20953;-83
2023/09/13 07:30:00;;;;;;;0.50;0.50;;;19.10;99.90;;;;;;5078066;28;20992;-83
2023/09/13 07:32:27;;;;;;;5.03;3.50;;;19.10;99.90;;;;;;5079382;28;20450;-83
2023/09/13 07:34:54;;;;;;;3.60;3.40;;;19.10;99.90;;;;;;5078671;28;20457;-82
2023/09/13 07:37:21;;;;;;;2.10;1.27;;;19.10;99.90;;;;;;5078606;28;20489;-82
2023/09/13 07:39:47;;;;;;;0.70;0.63;;;19.10;99.90;;;;;;5078429;28;20447;-83
2023/09/13 07:42:14;;;;;;;0.50;0.30;;;19.10;99.90;;;;;;5078927;28;20526;-82
2023/09/13 07:44:42;;;;;;;2.50;2.20;;;19.20;99.90;;;;;;5077546;28;20485;-84
2023/09/13 07:47:09;;;;;;;0.67;0.67;;;19.30;99.90;;;;;;5077607;28;20479;-82
2023/09/13 07:49:36;;;;;;;0.50;0.47;;;19.30;99.90;;;;;;5078955;28;20443;-84
2023/09/13 07:52:03;;;;;;;1.33;0.83;;;19.40;99.90;;;;;;5077416;28;20459;-82
2023/09/13 07:54:30;;;;;;;1.53;1.43;;;19.40;99.90;;;;;;5078171;28;20466;-82
2023/09/13 07:56:57;;;;;;;2.10;2.00;;;19.30;99.90;;;;;;5078000;28;20464;-82
2023/09/13 07:59:25;;;;;;;0.50;0.40;;;19.30;99.90;;;;;;5077638;28;20447;-82
2023/09/13 08:01:53;;;;;;;0.50;0.30;;;19.40;99.90;;;;;;5077257;28;20885;-82
2023/09/13 08:04:20;;;;;;;1.03;0.90;;;19.50;99.90;;;;;;5076991;28;20482;-84
2023/09/13 08:06:47;;;;;;;3.07;2.83;;;19.50;99.90;;;;;;5077294;28;20463;-83
2023/09/13 08:09:16;;;;;;;3.13;2.53;;;19.40;99.90;;;;;;5077526;28;20436;-82
2023/09/13 08:11:43;;;;;;;0.60;0.60;;;19.40;99.90;;;;;;5077810;28;20443;-83
2023/09/13 08:14:10;;;;;;;6.27;4.20;;;19.30;99.90;;;;;;5076568;28;20990;-82
2023/09/13 08:16:37;;;;;;;3.83;3.37;;;19.30;99.90;;;;;;5076480;28;20463;-82
2023/09/13 08:19:05;;;;;;;3.63;1.20;;;19.20;99.90;;;;;;5076673;28;20534;-81
2023/09/13 08:21:32;;;;;;;3.50;3.30;;;19.20;99.90;;;;;;5076873;28;20507;-82
2023/09/13 08:23:59;;;;;;;2.10;2.00;;;19.20;99.90;;;;;;5076063;28;20482;-82
2023/09/13 08:26:26;;;;;;;0.50;0.30;;;19.30;99.90;;;;;;5077012;28;20984;-83
2023/09/13 08:28:53;;;;;;;0.50;0.30;;;19.20;99.90;;;;;;5076274;28;20447;-82
2023/09/13 08:31:23;;;;;;;0.87;0.87;;;19.20;99.90;;;;;;5059636;28;21059;-82
2023/09/13 08:33:50;;;;;;;0.70;0.70;;;19.20;99.90;;;;;;5075250;28;20451;-83
2023/09/13 08:36:18;;;;;;;0.50;0.40;;;19.10;99.90;;;;;;5074956;28;20993;-82
2023/09/13 08:38:45;;;;;;;0.50;0.30;;;19.10;99.90;;;;;;5075041;28;20455;-82
2023/09/13 08:41:13;;;;;;;0.50;0.30;;;19.10;99.90;;;;;;5073827;28;20447;-81
2023/09/13 08:43:42;;;;;;;0.50;0.40;;;19.20;99.90;;;;;;5073174;28;20491;-84
2023/09/13 08:46:09;;;;;;;0.70;0.70;;;19.80;99.90;;;;;;5076432;28;20460;-84
2023/09/13 08:48:38;;;;;;;0.50;0.30;;;20.00;99.90;;;;;;5074959;28;20439;-83
2023/09/13 08:51:07;;;;;;;0.50;0.40;;;20.10;99.90;;;;;;5075032;28;20879;-82
2023/09/13 08:53:36;;;;;;;0.53;0.53;;;20.20;99.90;;;;;;5075272;28;20447;-83
2023/09/13 08:56:05;;;;;;;3.03;2.87;;;20.80;99.90;;;;;;5073582;28;20478;-81
2023/09/13 08:58:32;;;;;;;0.50;0.30;;;21.20;99.90;;;;;;5074768;28;20941;-83
2023/09/13 09:01:03;;;;;;;4.73;4.33;;;21.30;99.90;;;;;;5074768;28;20458;-84
2023/09/13 09:03:31;;;;;;;0.50;0.40;;;21.00;99.90;;;;;;5073358;28;20947;-83
2023/09/13 09:05:58;;;;;;;0.50;0.30;;;21.00;99.90;;;;;;5074941;28;20475;-83
2023/09/13 09:08:27;;;;;;;1.37;1.33;;;21.40;99.90;;;;;;5075490;28;20536;-83
2023/09/13 09:10:57;;;;;;;7.90;0.70;;;21.60;99.90;;;;;;5074903;28;20445;-83
2023/09/13 09:13:26;;;;;;;0.50;0.40;;;21.50;99.90;;;;;;5057985;28;20467;-82
2023/09/13 09:15:56;;;;;;;0.50;0.30;;;21.40;99.90;;;;;;5074142;28;20470;-80
2023/09/13 09:18:24;;;;;;;0.60;0.60;;;21.40;99.90;;;;;;5078410;22;20581;-84
2023/09/13 09:20:51;;;;;;;0.63;0.63;;;21.70;99.90;;;;;;5055022;28;20438;-83
2023/09/13 09:23:19;;;;;;;2.37;2.27;;;22.10;99.90;;;;;;5064389;28;20477;-84
2023/09/13 09:25:50;;;;;;;5.00;1.60;;;22.20;99.90;;;;;;5066068;28;20441;-84
2023/09/13 09:28:18;;;;;;;0.60;0.60;;;22.10;99.90;;;;;;5068184;28;20468;-83
2023/09/13 09:30:45;;;;;;;0.50;0.30;;;21.80;99.90;;;;;;5073485;28;20442;-80
2023/09/13 09:33:13;;;;;;;0.60;0.40;;;21.80;99.90;;;;;;5073585;28;20442;-82
2023/09/13 09:35:40;;;;;;;5.67;1.70;;;21.50;99.90;;;;;;5073524;28;20504;-82
2023/09/13 09:38:22;;;;;;;5.07;3.50;;;21.20;99.90;;;;;;5073927;28;20985;-84
2023/09/13 09:40:49;;;;;;;1.80;1.70;;;21.00;99.90;;;;;;5073870;28;20937;-85
2023/09/13 09:43:15;;;;;;;0.50;0.30;;;21.10;99.90;;;;;;5073284;28;20516;-82
2023/09/13 09:45:44;;;;;;;0.50;0.30;;;21.40;99.90;;;;;;5072875;28;20448;-84
2023/09/13 09:48:13;;;;;;;5.17;1.63;;;21.70;99.90;;;;;;5072649;28;20460;-83
2023/09/13 09:50:45;;;;;;;0.50;0.40;;;21.80;99.90;;;;;;5073857;28;20503;-83
2023/09/13 09:53:13;;;;;;;1.00;1.00;;;21.60;99.90;;;;;;5073296;28;20440;-83
2023/09/13 09:55:41;;;;;;;0.50;0.30;;;21.10;99.90;;;;;;5073454;28;20445;-84
2023/09/13 09:58:08;;;;;;;0.50;0.40;;;20.70;99.90;;;;;;5073426;28;20471;-83
2023/09/13 10:00:47;;;;;;;0.50;0.40;;;20.30;99.90;;;;;;5073672;28;20441;-84
2023/09/13 10:03:17;;;;;;;0.50;0.30;;;19.90;99.90;;;;;;5072869;28;20968;-85
2023/09/13 10:05:59;;;;;;;0.50;0.40;;;19.40;99.90;;;;;;5073144;28;21014;-84
2023/09/13 10:08:43;;;;;;;0.50;0.30;;;19.10;99.90;;;;;;5073500;28;20459;-84
2023/09/13 10:11:11;;;;;;;0.50;0.40;;;18.90;99.90;;;;;;5073257;28;20444;-82
2023/09/13 10:13:38;;;;;;;0.50;0.30;;;18.70;99.90;;;;;;5073951;28;20938;-84
2023/09/13 10:16:08;;;;;;;0.50;0.30;;;18.50;99.90;;;;;;5073402;28;20455;-83
2023/09/13 10:18:38;;;;;;;0.50;0.30;;;18.40;99.90;;;;;;5073748;28;20463;-83
2023/09/13 10:21:07;;;;;;;0.50;0.30;;;18.50;99.90;;;;;;5073604;28;20450;-83
2023/09/13 10:23:40;;;;;;;0.50;0.30;;;18.50;99.90;;;;;;5073594;28;20485;-84
2023/09/13 10:26:09;;;;;;;0.50;0.30;;;18.50;99.90;;;;;;5072706;28;20787;-86
2023/09/13 10:28:39;;;;;;;0.50;0.30;;;18.50;99.90;;;;;;5073653;28;20467;-86
2023/09/13 10:31:13;;;;;;;1.30;0.47;;;18.60;99.90;;;;;;5073783;28;20444;-82
2023/09/13 10:33:44;;;;;;;0.50;0.30;;;18.50;99.90;;;;;;5073769;28;20437;-84
2023/09/13 10:36:19;;;;;;;0.50;0.30;;;18.50;99.90;;;;;;5073453;28;20443;-83
2023/09/13 10:38:49;;;;;;;1.63;1.53;;;18.50;99.90;;;;;;5073529;28;20465;-86
2023/09/13 10:41:18;;;;;;;0.50;0.30;;;18.40;99.90;;;;;;5073872;28;20463;-86
2023/09/13 10:43:48;;;;;;;0.50;0.40;;;18.20;99.90;;;;;;5078102;28;20486;-85
2023/09/13 10:46:18;;;;;;;0.50;0.40;;;18.30;99.90;;;;;;5077670;28;20441;-85
2023/09/13 10:48:46;;;;;;;0.50;0.30;;;18.30;99.90;;;;;;5077653;28;20478;-82
2023/09/13 10:51:16;;;;;;;0.53;0.37;;;18.30;99.90;;;;;;5077190;28;20443;-84
2023/09/13 10:53:45;;;;;;;0.50;0.40;;;18.20;99.90;;;;;;5077424;28;20523;-85
2023/09/13 10:56:15;;;;;;;0.50;0.40;;;18.30;99.90;;;;;;5076623;28;20444;-85
2023/09/13 10:58:45;;;;;;;0.50;0.40;;;18.40;99.90;;;;;;5076300;28;21003;-82
2023/09/13 11:01:14;;;;;;;0.50;0.30;;;18.40;99.90;;;;;;5076500;28;20440;-82
2023/09/13 11:03:43;;;;;;;0.50;0.40;;;18.50;99.90;;;;;;5076712;28;20440;-86
2023/09/13 11:06:10;;;;;;;0.50;0.30;;;18.70;99.90;;;;;;5076079;28;20447;-84
2023/09/13 11:08:37;;;;;;;0.50;0.30;;;18.90;99.90;;;;;;5076672;28;20469;-86
2023/09/13 11:11:09;;;;;;;0.50;0.30;;;19.30;99.90;;;;;;5076015;28;20437;-83
2023/09/13 11:13:36;;;;;;;0.50;0.30;;;19.50;99.90;;;;;;5060162;28;20476;-86
2023/09/13 11:16:04;;;;;;;0.50;0.50;;;19.50;99.90;;;;;;5077096;28;20440;-86
2023/09/13 11:18:31;;;;;;;0.50;0.40;;;19.80;99.90;;;;;;5075623;28;20803;-84
2023/09/13 11:20:59;;;;;;;0.50;0.40;;;19.80;99.90;;;;;;5075519;28;20958;-86
2023/09/13 11:23:26;;;;;;;0.50;0.40;;;20.00;99.90;;;;;;5075296;28;20582;-84
2023/09/13 11:25:55;;;;;;;0.50;0.30;;;20.80;99.90;;;;;;5075143;28;20487;-82
2023/09/13 11:28:43;;;;;;;0.50;0.33;;;22.60;99.90;;;;;;5075243;28;20847;-85
2023/09/13 11:31:13;;;;;;;0.50;0.30;;;24.50;99.90;;;;;;5074833;28;20443;-83
2023/09/13 11:33:46;;;;;;;0.50;0.30;;;26.00;99.90;;;;;;5075939;28;20474;-86
2023/09/13 11:36:18;;;;;;;0.50;0.30;;;26.80;99.90;;;;;;5075874;28;20445;-86
2023/09/13 11:38:45;;;;;;;0.50;0.30;;;27.80;99.90;;;;;;5075986;28;20501;-84
2023/09/13 11:41:17;;;;;;;0.50;0.30;;;28.60;99.90;;;;;;5075922;28;20437;-81
2023/09/13 11:43:44;;;;;;;0.50;0.30;;;29.10;99.90;;;;;;5077381;28;20846;-83
2023/09/13 11:46:12;;;;;;;0.50;0.30;;;29.40;99.90;;;;;;5076215;28;20504;-85
2023/09/13 11:48:40;;;;;;;0.50;0.30;;;29.90;99.90;;;;;;5075804;28;20482;-83
2023/09/13 11:51:12;;;;;;;0.50;0.30;;;30.10;99.90;;;;;;5076275;28;20871;-84
2023/09/13 11:53:41;;;;;;;0.50;0.30;;;30.50;99.90;;;;;;5059067;28;20441;-84
2023/09/13 11:56:29;;;;;;;0.40;0.30;;;30.90;99.80;;;;;;5076016;28;20442;-85
2023/09/13 11:58:58;;;;;;;0.50;0.30;;;31.10;99.90;;;;;;5064537;28;20457;-86
2023/09/13 12:01:26;;;;;;;0.43;0.30;;;31.50;97.80;;;;;;5076203;28;20444;-85
2023/09/13 12:03:53;;;;;;;0.50;0.30;;;30.90;95.30;;;;;;5076148;28;20440;-83
2023/09/13 12:06:20;;;;;;;0.50;0.30;;;30.60;93.80;;;;;;5075659;28;20531;-84
2023/09/13 12:08:49;;;;;;;0.50;0.30;;;29.70;96.40;;;;;;5076391;28;20467;-84
2023/09/13 12:11:16;;;;;;;0.50;0.30;;;28.60;99.90;;;;;;5076503;28;20517;-83
2023/09/13 12:13:44;;;;;;;0.50;0.30;;;27.60;99.90;;;;;;5076753;28;20456;-85
2023/09/13 12:16:11;;;;;;;0.50;0.40;;;26.70;99.90;;;;;;5076494;28;20523;-84
2023/09/13 12:18:39;;;;;;;0.50;0.30;;;25.90;99.90;;;;;;5075870;28;20457;-82
2023/09/13 12:21:07;;;;;;;0.50;0.30;;;25.20;99.90;;;;;;5076635;28;20439;-84
2023/09/13 12:23:35;;;;;;;0.50;0.30;;;24.40;99.90;;;;;;5075925;28;20443;-86
2023/09/13 12:26:05;;;;;;;0.50;0.30;;;24.00;99.90;;;;;;5076281;28;20477;-82
2023/09/13 12:28:34;;;;;;;0.50;0.30;;;24.00;99.90;;;;;;5075772;28;20595;-83
2023/09/13 12:31:05;;;;;;;0.50;0.40;;;23.80;99.90;;;;;;5075985;28;20442;-81
2023/09/13 12:33:32;;;;;;;0.50;0.30;;;23.60;99.90;;;;;;5075511;28;20446;-82
2023/09/13 12:36:00;;;;;;;0.50;0.33;;;23.40;99.90;;;;;;5076508;28;20434;-83
2023/09/13 12:38:32;;;;;;;0.50;0.40;;;23.10;99.90;;;;;;5076112;28;20476;-84
2023/09/13 12:40:59;;;;;;;0.50;0.47;;;22.80;99.90;;;;;;5075595;28;20446;-81
2023/09/13 12:43:30;;;;;;;0.50;0.30;;;22.60;99.90;;;;;;5075473;28;20606;-83
2023/09/13 12:45:57;;;;;;;0.50;0.40;;;22.40;99.90;;;;;;5075353;28;20568;-80
2023/09/13 12:48:25;;;;;;;0.50;0.40;;;22.30;99.90;;;;;;5077730;28;20463;-83
2023/09/13 12:50:52;;;;;;;0.50;0.30;;;21.90;99.90;;;;;;5076378;28;20434;-82